Aérodrome :
LOGIN :

S'inscrire | Disclaimer

   EN    FR    IT 

 










Légende :    VFR   VFR Marginal   IFR   IFR Intensif   IFR Très Intensif
Visi : 
Plafond : 
>= 8 km
>= 3000ft
5 à 8 km
1000 à 3000 ft
1500m à 5 km
500 à 1000 ft
800 à 1500m
200 à 500 ft
< 800m
< 200 ft
Symboles :   Orages  Brouillard  Fortes neiges  Fortes précipitations  Vent > 20 kt
SIGMETs :   Divers  Orages  Givrage  Turbulence  Onde Orograph.  Cendres Volcan.







- Altitude de l'aérodrome : 604 ft
- Code IATA : LCJ


EPLL - Lodz

DERNIER METAR :
  • 221200Z 32006KT 280V360 9999 BKN013 10/07 Q1033

METARs EXPIRÉS :
  • 221130Z 34006KT 310V010 9999 FEW008 OVC013 10/08 Q1032
  • 221100Z 29005KT 270V350 9999 SCT008 OVC010 09/08 Q1032
  • 221030Z 30006KT 260V320 9000 SCT007 BKN013 09/08 Q1032
  • 221000Z 30006KT 7000 SCT007 OVC011 09/08 Q1032
  • 220930Z 29005KT 5000 -DZ BR OVC005 09/08 Q1032

TAF TAF EPLL
Valide du 22 à 12h jusqu'au 23 à 12h UTC


221130Z 2212/2312 VRB02KT 9999 BKN012
BECMG 2212/2214 BKN030
BECMG 2220/2222 2000 BR
PROB40 2300/2306 0400 FG BKN001
BECMG 2308/2310 8000 BKN010
Pas de NOTAMs connus pour ce terrain.



MET'MAP, la Météo Aéronautique d'un coup d'oeil ! - Copyright ORBIFLY Décembre 2007 - Disclaimer

ORBIFLY MET'MAP TEAM :

Programmation & Développement : Alexandra Zaïnal
Conception & Développement : Baudouin d'Aumeries
Co-Programmation & Développement : Marc-Olivier Méhu
Soutien technique & logistique : Manuel Goepfert

Contact : metmap@orbifly.com




SOURCES & CREDITS :

   NOAA